Time;durP1;ratioP1;P1;durP2;ratioP2;P2;SDS_P1;SDS_P2;PMS_P1;PMS_P2;Temp;Humidity;BMP_temperature;BMP_pressure;BME280_temperature;BME280_humidity;BME280_pressure;Samples;Min_cycle;Max_cycle;Signal;HPM_P1;HPM_P2
2023/01/07 00:01:11;;;;;;;7.65;4.63;;;12.40;99.90;;;;;;5021050;28;20042;-68
2023/01/07 00:03:38;;;;;;;9.23;5.05;;;12.40;99.90;;;;;;5027293;28;20029;-68
2023/01/07 00:06:15;;;;;;;11.13;6.70;;;12.30;99.90;;;;;;5027671;28;20038;-68
2023/01/07 00:08:43;;;;;;;9.77;6.43;;;12.30;99.90;;;;;;5015303;28;20076;-67
2023/01/07 00:11:17;;;;;;;10.45;6.50;;;12.30;99.90;;;;;;5034260;28;20037;-69
2023/01/07 00:13:43;;;;;;;9.18;6.43;;;12.30;99.90;;;;;;5029985;28;20091;-68
2023/01/07 00:16:11;;;;;;;10.43;6.00;;;12.20;99.90;;;;;;5025326;28;20026;-69
2023/01/07 00:18:37;;;;;;;9.43;5.80;;;12.20;99.90;;;;;;5020125;28;20466;-67
2023/01/07 00:21:05;;;;;;;10.35;6.30;;;12.20;99.90;;;;;;5016562;28;20120;-68
2023/01/07 00:23:33;;;;;;;12.30;5.47;;;12.20;99.90;;;;;;5032023;28;20061;-69
2023/01/07 00:26:19;;;;;;;8.27;4.43;;;12.20;99.90;;;;;;5016481;28;20037;-68
2023/01/07 00:28:48;;;;;;;10.05;5.10;;;12.20;99.90;;;;;;5024650;28;20387;-68
2023/01/07 00:31:26;;;;;;;8.70;4.38;;;12.10;99.90;;;;;;5025820;28;20099;-68
2023/01/07 00:36:18;;;;;;;7.88;4.57;;;12.10;99.90;;;;;;5060513;28;20033;-68
2023/01/07 00:38:44;;;;;;;10.55;5.50;;;12.10;99.90;;;;;;5031604;28;20121;-69
2023/01/07 00:41:10;;;;;;;9.38;5.70;;;12.10;99.90;;;;;;5016600;28;20451;-69
2023/01/07 00:43:35;;;;;;;9.93;4.97;;;12.10;99.90;;;;;;5022287;28;20045;-70
2023/01/07 00:46:01;;;;;;;10.68;5.85;;;12.10;99.90;;;;;;5026061;28;20383;-69
2023/01/07 00:48:26;;;;;;;11.52;5.28;;;12.10;99.90;;;;;;5027831;28;20419;-68
2023/01/07 00:50:53;;;;;;;11.38;5.82;;;12.00;99.90;;;;;;5016726;28;20133;-69
2023/01/07 00:53:19;;;;;;;13.20;6.38;;;12.00;99.90;;;;;;5019373;28;20387;-69
2023/01/07 00:55:47;;;;;;;10.70;5.65;;;12.00;99.90;;;;;;5023856;28;20029;-69
2023/01/07 00:58:20;;;;;;;12.15;5.97;;;12.00;99.90;;;;;;5023142;28;20045;-69
2023/01/07 01:00:46;;;;;;;11.98;6.43;;;12.00;99.90;;;;;;5028652;28;20037;-69
2023/01/07 01:03:11;;;;;;;12.40;6.55;;;12.00;99.90;;;;;;5029189;28;20037;-69
2023/01/07 01:05:38;;;;;;;7.35;4.32;;;12.00;99.90;;;;;;5026675;28;20038;-71
2023/01/07 01:08:04;;;;;;;11.63;6.40;;;12.10;99.90;;;;;;5027931;28;20033;-69
2023/01/07 01:10:29;;;;;;;12.07;5.68;;;12.00;99.90;;;;;;5026859;28;20037;-69
2023/01/07 01:12:55;;;;;;;11.40;5.10;;;12.00;99.90;;;;;;5028892;28;20029;-68
2023/01/07 01:15:21;;;;;;;7.35;4.40;;;12.00;99.90;;;;;;5028195;28;20075;-71
2023/01/07 01:17:50;;;;;;;10.50;5.47;;;12.00;99.90;;;;;;5029504;28;20106;-69
2023/01/07 01:20:15;;;;;;;9.75;4.50;;;12.00;99.90;;;;;;5017093;28;20034;-70
2023/01/07 01:22:41;;;;;;;8.85;4.70;;;12.00;99.90;;;;;;5014305;28;20377;-69
2023/01/07 01:25:08;;;;;;;14.02;6.05;;;11.90;99.90;;;;;;5025801;28;20024;-70
2023/01/07 01:27:33;;;;;;;12.95;5.00;;;11.90;99.90;;;;;;5023638;28;20104;-71
2023/01/07 01:29:59;;;;;;;9.70;4.75;;;11.80;99.90;;;;;;5030254;28;20456;-70
2023/01/07 01:32:25;;;;;;;8.88;4.25;;;11.80;99.90;;;;;;5017905;28;20420;-69
2023/01/07 01:34:50;;;;;;;10.63;4.25;;;11.80;99.90;;;;;;5028896;28;20040;-70
2023/01/07 01:37:18;;;;;;;9.68;5.03;;;11.80;99.90;;;;;;5024439;28;20057;-71
2023/01/07 01:39:44;;;;;;;10.68;4.97;;;11.80;99.90;;;;;;5027569;28;20026;-71
2023/01/07 01:42:20;;;;;;;7.47;4.32;;;11.80;99.90;;;;;;5023205;28;20037;-69
2023/01/07 01:44:52;;;;;;;7.47;3.90;;;11.80;99.90;;;;;;5028696;28;20475;-71
2023/01/07 01:47:36;;;;;;;8.82;4.95;;;11.80;99.90;;;;;;5032085;28;20033;-71
2023/01/07 01:50:17;;;;;;;8.02;4.55;;;11.80;99.90;;;;;;5028870;28;20392;-70
2023/01/07 01:52:59;;;;;;;7.23;3.53;;;11.80;99.90;;;;;;5029277;28;20040;-71
2023/01/07 01:55:36;;;;;;;7.15;4.30;;;11.80;99.90;;;;;;5031759;28;20262;-72
2023/01/07 01:58:14;;;;;;;9.35;4.45;;;11.70;99.90;;;;;;5031662;28;20048;-71
2023/01/07 02:00:51;;;;;;;8.70;5.55;;;11.70;99.90;;;;;;5029339;28;20022;-71
2023/01/07 02:03:19;;;;;;;7.85;3.97;;;11.70;99.90;;;;;;5044711;28;20029;-70
2023/01/07 02:05:46;;;;;;;7.15;3.30;;;11.70;99.90;;;;;;5031260;28;20037;-71
2023/01/07 02:08:12;;;;;;;10.52;4.05;;;11.70;99.90;;;;;;5029998;28;20030;-69
2023/01/07 02:10:38;;;;;;;7.00;3.95;;;11.60;99.90;;;;;;5030467;28;20201;-71
2023/01/07 02:13:42;;;;;;;8.40;3.83;;;11.60;99.90;;;;;;5032972;28;20083;-70
2023/01/07 02:16:21;;;;;;;6.95;4.13;;;11.60;99.90;;;;;;5030463;28;20080;-69
2023/01/07 02:19:08;;;;;;;6.45;3.28;;;11.60;99.90;;;;;;5028095;28;20119;-69
2023/01/07 02:21:55;;;;;;;8.85;4.03;;;11.60;99.90;;;;;;5031471;28;20025;-68
2023/01/07 02:24:49;;;;;;;7.30;3.80;;;11.50;99.90;;;;;;5043390;28;20068;-69
2023/01/07 02:27:19;;;;;;;6.32;3.10;;;11.50;99.90;;;;;;5029989;28;20048;-71
2023/01/07 02:30:16;;;;;;;5.05;3.17;;;11.50;99.90;;;;;;5028816;28;20030;-71
2023/01/07 02:32:51;;;;;;;7.78;4.30;;;11.50;99.90;;;;;;5028531;28;20105;-69
2023/01/07 02:35:28;;;;;;;6.97;3.17;;;11.50;99.90;;;;;;5032015;28;20212;-69
2023/01/07 02:38:23;;;;;;;10.55;4.20;;;11.50;99.90;;;;;;5030250;28;20025;-71
2023/01/07 02:41:11;;;;;;;8.30;3.63;;;11.40;99.90;;;;;;5028324;28;20113;-68
2023/01/07 02:44:15;;;;;;;8.35;3.80;;;11.40;99.90;;;;;;5032257;28;20115;-70
2023/01/07 02:47:01;;;;;;;9.30;4.65;;;11.40;99.90;;;;;;5024079;28;20048;-71
2023/01/07 02:49:28;;;;;;;12.57;4.90;;;11.30;99.90;;;;;;5032029;28;20088;-69
2023/01/07 02:51:54;;;;;;;8.02;4.53;;;11.30;99.90;;;;;;5030410;28;20156;-70
2023/01/07 02:54:25;;;;;;;14.20;5.03;;;11.30;99.90;;;;;;5031139;28;20438;-71
2023/01/07 02:57:13;;;;;;;10.00;4.38;;;11.30;99.90;;;;;;5032361;28;20112;-69
2023/01/07 03:00:16;;;;;;;11.80;5.13;;;11.30;99.90;;;;;;5030750;28;20033;-69
2023/01/07 03:02:52;;;;;;;10.68;5.60;;;11.30;99.90;;;;;;5031068;28;20040;-70
2023/01/07 03:05:44;;;;;;;11.80;5.63;;;11.30;99.90;;;;;;5031685;28;20033;-71
2023/01/07 03:08:54;;;;;;;12.60;5.80;;;11.20;99.90;;;;;;5056639;28;20040;-69
2023/01/07 03:11:24;;;;;;;13.73;5.85;;;11.20;99.90;;;;;;5031013;28;20044;-69
2023/01/07 03:14:31;;;;;;;10.88;6.00;;;11.20;99.90;;;;;;5027048;28;20025;-69
2023/01/07 03:17:01;;;;;;;11.32;5.80;;;11.20;99.90;;;;;;4993264;28;20445;-69
2023/01/07 03:19:33;;;;;;;15.55;7.20;;;11.20;99.90;;;;;;5024731;28;20399;-72
2023/01/07 03:22:00;;;;;;;;;;;11.30;99.90;;;;;;5031758;28;20021;-69
2023/01/07 03:24:30;;;;;;;13.15;5.32;;;11.30;99.90;;;;;;5031789;28;19995;-69
2023/01/07 03:26:58;;;;;;;12.20;6.82;;;11.30;99.90;;;;;;5030080;28;20017;-72
2023/01/07 03:29:24;;;;;;;13.55;6.47;;;11.30;99.90;;;;;;5029067;28;20021;-70
2023/01/07 03:32:14;;;;;;;10.45;5.07;;;11.40;99.90;;;;;;5028731;28;20114;-71
2023/01/07 03:34:42;;;;;;;13.13;6.10;;;11.30;99.90;;;;;;5029195;28;20025;-70
2023/01/07 03:37:17;;;;;;;14.50;6.10;;;11.30;99.90;;;;;;5031016;28;20021;-71
2023/01/07 03:39:45;;;;;;;15.50;6.40;;;11.30;99.90;;;;;;5029335;28;20121;-70
2023/01/07 03:44:58;;;;;;;12.57;6.05;;;11.20;99.90;;;;;;5030415;28;20083;-70
2023/01/07 03:47:26;;;;;;;10.38;4.63;;;11.20;99.90;;;;;;5028965;28;20423;-69
2023/01/07 03:49:51;;;;;;;9.48;5.10;;;11.10;99.90;;;;;;5031647;28;20042;-71
2023/01/07 03:52:18;;;;;;;13.77;6.40;;;11.10;99.90;;;;;;5031638;28;20052;-70
2023/01/07 03:54:44;;;;;;;15.20;6.68;;;11.10;99.90;;;;;;5029629;28;20033;-69
2023/01/07 03:57:09;;;;;;;14.13;6.35;;;11.10;99.90;;;;;;5029636;28;20071;-70
2023/01/07 03:59:35;;;;;;;10.55;4.85;;;11.10;99.90;;;;;;5028858;28;20041;-70
2023/01/07 04:02:01;;;;;;;8.25;4.53;;;11.10;99.90;;;;;;5030038;28;20068;-70
2023/01/07 04:04:31;;;;;;;10.82;5.65;;;11.10;99.90;;;;;;5030427;28;20029;-72
2023/01/07 04:06:57;;;;;;;13.18;5.43;;;11.10;99.90;;;;;;5029577;28;20054;-71
2023/01/07 04:09:23;;;;;;;11.65;5.43;;;11.20;99.90;;;;;;5028972;28;20029;-71
2023/01/07 04:11:49;;;;;;;12.85;5.35;;;11.20;99.90;;;;;;5027844;28;20088;-70
2023/01/07 04:14:14;;;;;;;11.90;5.65;;;11.20;99.90;;;;;;5024688;28;20041;-70
2023/01/07 04:16:40;;;;;;;11.52;5.38;;;11.20;99.90;;;;;;5014867;28;20018;-71
2023/01/07 04:19:06;;;;;;;11.00;4.35;;;11.30;99.90;;;;;;5013358;28;20030;-71
2023/01/07 04:21:32;;;;;;;14.43;5.75;;;11.30;99.90;;;;;;5013475;28;20460;-70
2023/01/07 04:23:57;;;;;;;11.52;5.05;;;11.30;99.90;;;;;;5013561;28;20074;-70
2023/01/07 04:26:23;;;;;;;12.15;4.60;;;11.30;99.90;;;;;;5012912;28;20036;-70
2023/01/07 04:28:48;;;;;;;11.50;5.35;;;11.30;99.90;;;;;;5028256;28;20168;-72
2023/01/07 04:31:14;;;;;;;12.55;4.90;;;11.30;99.90;;;;;;5017199;28;20052;-72
2023/01/07 04:33:40;;;;;;;6.47;4.07;;;11.30;99.90;;;;;;5026522;28;20117;-70
2023/01/07 04:36:06;;;;;;;11.45;4.18;;;11.30;99.90;;;;;;5026297;28;20057;-71
2023/01/07 04:38:32;;;;;;;9.63;4.50;;;11.20;99.90;;;;;;5032186;28;20038;-71
2023/01/07 04:40:58;;;;;;;14.75;5.13;;;11.20;99.90;;;;;;5031980;28;20029;-71
2023/01/07 04:43:23;;;;;;;10.32;4.43;;;11.20;99.90;;;;;;5031987;28;20036;-71
2023/01/07 04:45:49;;;;;;;12.52;4.80;;;11.20;99.90;;;;;;5035856;28;20056;-71
2023/01/07 04:48:15;;;;;;;10.65;4.10;;;11.20;99.90;;;;;;5031707;28;20025;-70
2023/01/07 04:50:41;;;;;;;11.73;4.85;;;11.10;99.90;;;;;;5031835;28;20132;-70
2023/01/07 04:53:07;;;;;;;10.48;4.65;;;11.10;99.90;;;;;;5032019;28;20099;-70
2023/01/07 04:55:33;;;;;;;6.55;2.97;;;11.10;99.90;;;;;;5031743;28;20038;-70
2023/01/07 04:57:59;;;;;;;4.88;2.63;;;11.10;99.90;;;;;;5031375;28;20102;-70
2023/01/07 05:00:24;;;;;;;10.60;4.35;;;11.10;99.90;;;;;;5032042;28;20025;-70
2023/01/07 05:02:50;;;;;;;10.25;3.92;;;11.10;99.90;;;;;;5031833;28;20045;-71
2023/01/07 05:05:16;;;;;;;11.05;4.75;;;11.10;99.90;;;;;;5031743;28;20079;-70
2023/01/07 05:07:41;;;;;;;8.45;3.70;;;11.10;99.90;;;;;;5031290;28;20025;-70
2023/01/07 05:10:07;;;;;;;9.43;4.15;;;11.10;99.90;;;;;;5032037;28;20036;-70
2023/01/07 05:12:34;;;;;;;13.27;4.70;;;11.00;99.90;;;;;;5031153;28;20099;-70
2023/01/07 05:15:01;;;;;;;10.48;5.15;;;11.00;99.90;;;;;;5032173;28;20033;-71
2023/01/07 05:17:28;;;;;;;12.40;5.45;;;11.00;99.90;;;;;;5031702;28;20033;-71
2023/01/07 05:19:53;;;;;;;14.50;6.15;;;11.00;99.90;;;;;;5031903;28;20103;-71
2023/01/07 05:22:19;;;;;;;15.18;7.28;;;10.90;99.90;;;;;;5031600;28;20458;-70
2023/01/07 05:24:44;;;;;;;12.40;5.55;;;11.00;99.90;;;;;;5031475;28;20541;-70
2023/01/07 05:27:10;;;;;;;10.77;4.95;;;11.00;99.90;;;;;;5032457;28;20502;-72
2023/01/07 05:29:36;;;;;;;11.98;5.38;;;11.00;99.90;;;;;;5035867;28;20030;-71
2023/01/07 05:32:01;;;;;;;14.68;6.63;;;11.00;99.90;;;;;;5037766;28;20037;-71
2023/01/07 05:34:27;;;;;;;14.52;6.65;;;11.00;99.90;;;;;;5035684;28;20025;-71
2023/01/07 05:36:53;;;;;;;15.50;6.28;;;11.00;99.90;;;;;;5035210;28;20390;-68
2023/01/07 05:39:19;;;;;;;15.00;6.50;;;11.00;99.90;;;;;;5037180;28;20025;-72
2023/01/07 05:41:45;;;;;;;14.52;6.80;;;11.00;99.90;;;;;;5035113;28;20030;-71
2023/01/07 05:44:10;;;;;;;16.45;7.75;;;11.00;99.90;;;;;;5034036;28;20022;-72
2023/01/07 05:46:36;;;;;;;12.52;6.50;;;11.00;99.90;;;;;;5035054;28;20033;-71
2023/01/07 05:49:02;;;;;;;12.38;5.32;;;10.90;99.90;;;;;;5033960;28;20025;-72
2023/01/07 05:51:27;;;;;;;13.38;7.13;;;10.90;99.90;;;;;;5034196;28;20132;-72
2023/01/07 05:53:54;;;;;;;11.05;5.88;;;10.80;99.90;;;;;;5034990;28;20057;-71
2023/01/07 05:56:20;;;;;;;18.88;7.70;;;10.80;99.90;;;;;;5034925;28;20124;-71
2023/01/07 05:58:46;;;;;;;12.90;6.47;;;10.80;99.90;;;;;;5034043;28;20040;-73
2023/01/07 06:01:11;;;;;;;16.13;7.03;;;10.80;99.90;;;;;;5033382;28;20029;-71
2023/01/07 06:03:37;;;;;;;15.98;8.10;;;10.80;99.90;;;;;;5034657;28;20100;-70
2023/01/07 06:06:05;;;;;;;16.52;7.18;;;10.80;99.90;;;;;;5035009;28;20077;-70
2023/01/07 06:08:41;;;;;;;16.10;7.93;;;10.80;99.90;;;;;;5032301;28;20031;-70
2023/01/07 06:11:07;;;;;;;20.00;8.20;;;10.80;99.90;;;;;;5029672;28;20068;-70
2023/01/07 06:13:33;;;;;;;13.88;6.55;;;10.80;99.90;;;;;;5035072;28;20021;-70
2023/01/07 06:16:05;;;;;;;16.77;8.25;;;10.80;99.90;;;;;;5034996;28;20041;-70
2023/01/07 06:18:31;;;;;;;16.00;6.50;;;10.80;99.90;;;;;;5034866;28;20041;-70
2023/01/07 06:20:57;;;;;;;14.48;6.18;;;10.70;99.90;;;;;;5034459;28;20057;-70
2023/01/07 06:23:23;;;;;;;15.25;5.55;;;10.70;99.90;;;;;;5032975;28;20021;-71
2023/01/07 06:25:49;;;;;;;15.07;7.63;;;10.70;99.90;;;;;;5034680;28;20022;-70
2023/01/07 06:28:15;;;;;;;16.23;7.15;;;10.60;99.90;;;;;;5029794;28;20060;-71
2023/01/07 06:30:40;;;;;;;17.73;7.72;;;10.60;99.90;;;;;;5034335;28;20057;-73
2023/01/07 06:33:07;;;;;;;14.85;6.50;;;10.60;99.90;;;;;;5034643;28;20103;-71
2023/01/07 06:35:32;;;;;;;11.63;5.78;;;10.60;99.90;;;;;;5034046;28;20026;-70
2023/01/07 06:38:00;;;;;;;18.65;7.57;;;10.50;99.90;;;;;;5032203;28;20033;-70
2023/01/07 06:40:26;;;;;;;15.57;6.80;;;10.60;99.90;;;;;;5034168;28;20797;-69
2023/01/07 06:42:52;;;;;;;18.05;7.43;;;10.60;99.90;;;;;;5034488;28;20519;-71
2023/01/07 06:45:18;;;;;;;18.40;8.18;;;10.50;99.90;;;;;;5034670;28;20025;-69
2023/01/07 06:47:44;;;;;;;17.95;8.25;;;10.50;99.90;;;;;;5033959;28;20380;-69
2023/01/07 06:50:10;;;;;;;17.27;7.05;;;10.50;99.90;;;;;;5033404;28;20136;-70
2023/01/07 06:52:36;;;;;;;16.95;7.05;;;10.50;99.90;;;;;;5034068;28;20053;-68
2023/01/07 06:55:02;;;;;;;13.45;4.97;;;10.50;99.90;;;;;;5034228;28;20060;-69
2023/01/07 06:57:28;;;;;;;17.95;7.95;;;10.50;99.90;;;;;;5031357;28;20060;-70
2023/01/07 06:59:53;;;;;;;19.60;7.82;;;10.40;99.90;;;;;;5033281;28;20060;-68
2023/01/07 07:02:22;;;;;;;18.27;7.68;;;10.40;99.90;;;;;;5033366;28;20356;-70
2023/01/07 07:04:49;;;;;;;12.23;6.05;;;10.40;99.90;;;;;;5033801;28;20501;-68
2023/01/07 07:07:15;;;;;;;14.75;6.43;;;10.40;99.90;;;;;;5032159;28;20052;-69
2023/01/07 07:09:41;;;;;;;16.38;7.13;;;10.40;99.90;;;;;;5033461;28;20408;-69
2023/01/07 07:12:07;;;;;;;16.75;6.78;;;10.40;99.90;;;;;;5031758;28;20179;-70
2023/01/07 07:14:33;;;;;;;15.13;7.13;;;10.40;99.90;;;;;;5033463;28;20040;-69
2023/01/07 07:16:59;;;;;;;14.05;6.28;;;10.40;99.90;;;;;;5033627;28;20037;-69
2023/01/07 07:19:25;;;;;;;15.73;6.07;;;10.30;99.90;;;;;;5033389;28;20030;-68
2023/01/07 07:21:50;;;;;;;13.45;5.72;;;10.30;99.90;;;;;;5033310;28;20473;-70
2023/01/07 07:24:16;;;;;;;17.95;6.80;;;10.30;99.90;;;;;;5032222;28;20025;-72
2023/01/07 07:26:41;;;;;;;10.27;4.78;;;10.30;99.90;;;;;;5032103;28;20495;-69
2023/01/07 07:29:08;;;;;;;16.45;6.30;;;10.30;99.90;;;;;;5033044;28;20032;-70
2023/01/07 07:31:34;;;;;;;13.15;5.85;;;10.30;99.90;;;;;;5032857;28;20131;-69
2023/01/07 07:33:59;;;;;;;14.80;6.15;;;10.30;99.90;;;;;;5032877;28;20050;-70
2023/01/07 07:36:25;;;;;;;15.25;6.85;;;10.20;99.90;;;;;;5033080;28;20025;-69
2023/01/07 07:38:51;;;;;;;12.52;5.10;;;10.20;99.90;;;;;;5032639;28;20025;-70
2023/01/07 07:41:16;;;;;;;10.68;4.65;;;10.20;99.90;;;;;;5031472;28;20025;-69
2023/01/07 07:43:42;;;;;;;13.57;5.50;;;10.30;99.90;;;;;;5033169;28;20028;-69
2023/01/07 07:46:08;;;;;;;16.45;5.70;;;10.30;99.90;;;;;;5032120;28;20100;-71
2023/01/07 07:48:33;;;;;;;10.68;5.03;;;10.30;99.90;;;;;;5034217;28;20030;-70
2023/01/07 07:51:00;;;;;;;12.18;4.82;;;10.40;99.90;;;;;;5032033;28;20136;-70
2023/01/07 07:53:25;;;;;;;16.63;5.50;;;10.40;99.90;;;;;;5031561;28;20021;-72
2023/01/07 07:55:52;;;;;;;11.63;4.50;;;10.50;99.90;;;;;;5032918;28;20032;-69
2023/01/07 07:58:18;;;;;;;10.35;3.92;;;10.50;99.90;;;;;;5030859;28;20025;-70
2023/01/07 08:00:44;;;;;;;8.27;4.72;;;10.50;99.90;;;;;;5032430;28;20040;-72
2023/01/07 08:03:10;;;;;;;8.90;3.78;;;10.60;99.90;;;;;;5033009;28;20025;-71
2023/01/07 08:05:41;;;;;;;10.95;3.67;;;10.60;99.90;;;;;;5064297;28;20025;-69
2023/01/07 08:08:10;;;;;;;8.80;3.65;;;10.60;99.90;;;;;;5031502;28;20032;-70
2023/01/07 08:10:37;;;;;;;9.55;3.42;;;10.70;99.90;;;;;;5031895;28;20041;-72
2023/01/07 08:13:03;;;;;;;5.95;2.65;;;10.70;99.90;;;;;;5032252;28;20116;-71
2023/01/07 08:15:30;;;;;;;8.07;2.42;;;10.80;99.90;;;;;;5032313;28;20033;-69
2023/01/07 08:17:58;;;;;;;7.00;2.78;;;10.80;99.90;;;;;;5032186;28;20049;-71
2023/01/07 08:20:24;;;;;;;6.38;2.50;;;10.80;99.90;;;;;;5031103;28;20026;-69
2023/01/07 08:22:50;;;;;;;5.95;2.45;;;10.80;99.90;;;;;;5031390;28;20040;-70
2023/01/07 08:25:15;;;;;;;6.78;2.58;;;10.90;99.90;;;;;;5032248;28;20026;-73
2023/01/07 08:27:41;;;;;;;5.97;2.30;;;10.90;99.90;;;;;;5031557;28;20033;-70
2023/01/07 08:30:07;;;;;;;6.65;2.58;;;10.90;99.90;;;;;;5032421;28;20030;-70
2023/01/07 08:32:33;;;;;;;8.05;2.15;;;11.00;99.90;;;;;;5031610;28;20044;-72
2023/01/07 08:34:59;;;;;;;7.43;2.92;;;11.00;99.90;;;;;;5030703;28;20059;-70
2023/01/07 08:37:24;;;;;;;4.25;2.10;;;11.00;99.90;;;;;;5031564;28;20025;-70
2023/01/07 08:39:50;;;;;;;9.13;2.58;;;11.10;99.90;;;;;;5033420;28;20491;-71
2023/01/07 08:42:16;;;;;;;4.07;1.73;;;11.10;99.90;;;;;;5030542;28;20498;-69
2023/01/07 08:44:41;;;;;;;3.85;2.00;;;11.10;99.90;;;;;;5032243;28;20033;-70
2023/01/07 08:47:07;;;;;;;10.07;2.63;;;11.10;99.90;;;;;;5031748;28;20032;-69
2023/01/07 08:49:33;;;;;;;3.35;1.80;;;11.20;99.90;;;;;;5031909;28;20030;-70
2023/01/07 08:51:58;;;;;;;2.10;1.80;;;11.20;99.90;;;;;;5031510;28;20045;-71
2023/01/07 08:54:24;;;;;;;5.55;2.03;;;11.20;99.90;;;;;;5031873;28;20025;-70
2023/01/07 08:56:49;;;;;;;3.83;2.03;;;11.20;99.90;;;;;;5032243;28;20021;-71
2023/01/07 08:59:15;;;;;;;7.10;2.08;;;11.30;99.90;;;;;;5031379;28;20036;-71
2023/01/07 09:01:41;;;;;;;4.93;1.88;;;11.30;99.90;;;;;;5028842;28;20037;-70
2023/01/07 09:04:07;;;;;;;6.00;2.38;;;11.40;99.90;;;;;;5031825;28;20030;-70
2023/01/07 09:06:32;;;;;;;7.15;2.22;;;11.40;99.90;;;;;;5031858;28;20030;-69
2023/01/07 09:08:58;;;;;;;7.13;2.58;;;11.50;99.90;;;;;;5031501;28;20026;-70
2023/01/07 09:11:24;;;;;;;2.33;1.50;;;11.50;99.90;;;;;;5029106;28;20128;-70
2023/01/07 09:13:50;;;;;;;1.67;1.23;;;11.50;99.90;;;;;;5031891;28;20053;-71
2023/01/07 09:16:17;;;;;;;4.50;2.13;;;11.50;99.90;;;;;;5032216;28;20072;-70
2023/01/07 09:18:44;;;;;;;3.60;1.75;;;11.40;99.90;;;;;;5030053;28;20037;-70
2023/01/07 09:21:09;;;;;;;7.55;2.13;;;11.50;99.90;;;;;;5031968;28;20114;-70
2023/01/07 09:23:35;;;;;;;5.03;1.73;;;11.50;99.90;;;;;;5030661;28;20105;-71
2023/01/07 09:26:01;;;;;;;2.45;1.63;;;11.50;99.90;;;;;;5031955;28;20070;-69
2023/01/07 09:28:26;;;;;;;2.90;1.58;;;11.50;99.90;;;;;;5029868;28;20074;-71
2023/01/07 09:30:52;;;;;;;3.55;1.65;;;11.40;99.90;;;;;;5031681;28;20578;-69
2023/01/07 09:33:17;;;;;;;5.25;1.88;;;11.40;99.90;;;;;;5031584;28;20025;-70
2023/01/07 09:35:43;;;;;;;2.75;1.65;;;11.40;99.90;;;;;;5031802;28;20191;-71
2023/01/07 09:38:08;;;;;;;3.00;1.77;;;11.40;99.90;;;;;;5030008;28;20041;-70
2023/01/07 09:40:36;;;;;;;4.80;1.75;;;11.40;99.90;;;;;;5031833;28;20486;-71
2023/01/07 09:43:19;;;;;;;2.55;1.60;;;11.50;99.90;;;;;;5029731;28;20124;-73
2023/01/07 09:45:54;;;;;;;3.30;1.75;;;11.50;99.90;;;;;;5011918;28;20049;-72
2023/01/07 09:48:31;;;;;;;2.05;1.67;;;11.50;99.90;;;;;;5018790;28;20026;-73
2023/01/07 09:51:06;;;;;;;3.75;1.77;;;11.50;99.90;;;;;;5029651;28;20133;-70
2023/01/07 09:53:36;;;;;;;3.53;1.80;;;11.50;99.90;;;;;;5031679;28;20076;-73
2023/01/07 09:56:05;;;;;;;1.83;1.48;;;11.60;99.90;;;;;;5031271;28;20031;-71
2023/01/07 09:58:31;;;;;;;4.95;1.52;;;11.60;99.90;;;;;;5031460;28;20025;-73
2023/01/07 10:01:08;;;;;;;5.55;1.67;;;11.70;99.90;;;;;;5030817;28;20117;-69
2023/01/07 10:03:46;;;;;;;2.40;1.45;;;11.70;99.90;;;;;;5031290;28;20030;-73
2023/01/07 10:06:52;;;;;;;2.28;1.50;;;11.70;99.90;;;;;;5031407;28;20080;-72
2023/01/07 10:09:31;;;;;;;2.78;1.48;;;11.70;99.90;;;;;;5030978;28;20029;-71
2023/01/07 10:12:24;;;;;;;3.67;1.40;;;11.80;99.90;;;;;;5030811;28;20049;-70
2023/01/07 10:15:07;;;;;;;3.97;1.38;;;11.80;99.90;;;;;;5034491;28;20026;-70
2023/01/07 10:18:13;;;;;;;3.42;1.70;;;11.80;99.90;;;;;;5034560;28;20037;-70
2023/01/07 10:20:48;;;;;;;3.35;1.50;;;11.80;99.90;;;;;;5022030;28;20025;-73
2023/01/07 10:23:27;;;;;;;2.58;1.63;;;11.90;99.90;;;;;;5034332;28;20124;-72
2023/01/07 10:25:55;;;;;;;3.42;1.40;;;11.90;99.90;;;;;;5034344;28;20029;-71
2023/01/07 10:28:40;;;;;;;6.28;2.30;;;12.00;99.90;;;;;;5032975;28;20049;-70
2023/01/07 10:31:14;;;;;;;3.42;2.17;;;12.10;99.90;;;;;;5034090;28;20095;-70
2023/01/07 10:33:40;;;;;;;3.25;1.27;;;12.10;99.90;;;;;;5034288;28;20033;-70
2023/01/07 10:36:27;;;;;;;5.30;1.90;;;12.30;99.90;;;;;;5034336;28;20037;-70
2023/01/07 10:39:12;;;;;;;3.85;1.55;;;12.40;99.90;;;;;;5034151;28;20533;-70
2023/01/07 10:42:19;;;;;;;1.85;1.20;;;12.60;99.90;;;;;;5032719;28;20140;-71
2023/01/07 10:45:19;;;;;;;2.15;1.38;;;12.70;99.90;;;;;;5024319;28;20083;-70
2023/01/07 10:48:14;;;;;;;4.35;1.63;;;12.70;99.90;;;;;;5033757;28;20021;-70
2023/01/07 10:50:42;;;;;;;1.92;1.45;;;12.80;99.90;;;;;;5023930;28;20068;-69
2023/01/07 10:53:46;;;;;;;1.70;1.17;;;12.80;99.90;;;;;;5026208;28;20029;-71
2023/01/07 10:56:33;;;;;;;2.17;1.30;;;12.80;99.90;;;;;;5034239;28;20024;-69
2023/01/07 10:58:59;;;;;;;3.78;1.30;;;12.70;99.90;;;;;;5032486;28;20037;-70
2023/01/07 11:01:32;;;;;;;1.60;1.00;;;12.70;99.90;;;;;;5032152;28;20391;-69
2023/01/07 11:03:59;;;;;;;1.58;0.95;;;12.80;99.90;;;;;;5033766;28;20026;-71
2023/01/07 11:06:35;;;;;;;2.95;1.23;;;13.00;99.90;;;;;;5034144;28;20060;-71
2023/01/07 11:09:05;;;;;;;3.25;1.17;;;13.10;99.90;;;;;;5033375;28;20033;-69
2023/01/07 11:11:32;;;;;;;4.93;1.40;;;13.20;99.90;;;;;;5033376;28;20095;-70
2023/01/07 11:14:03;;;;;;;1.85;1.25;;;13.30;99.90;;;;;;5033538;28;20045;-70
2023/01/07 11:16:36;;;;;;;1.08;0.93;;;13.40;99.90;;;;;;5034054;28;20594;-72
2023/01/07 11:19:07;;;;;;;2.53;1.25;;;13.50;99.90;;;;;;5032550;28;20025;-69
2023/01/07 11:21:42;;;;;;;1.98;1.27;;;13.40;99.90;;;;;;5030860;28;20029;-69
2023/01/07 11:24:27;;;;;;;6.43;1.73;;;13.50;99.90;;;;;;5031925;28;20034;-71
2023/01/07 11:27:20;;;;;;;3.22;1.30;;;13.70;99.90;;;;;;5033648;28;20487;-71
2023/01/07 11:30:01;;;;;;;2.40;1.05;;;13.70;99.90;;;;;;5031854;28;20382;-70
2023/01/07 11:32:31;;;;;;;3.78;1.30;;;13.70;99.90;;;;;;5019009;28;20090;-70
2023/01/07 11:34:59;;;;;;;4.53;1.38;;;13.50;99.90;;;;;;5033582;28;20022;-69
2023/01/07 11:37:34;;;;;;;4.00;1.80;;;13.30;99.90;;;;;;5033366;28;20017;-69
2023/01/07 11:40:03;;;;;;;1.40;1.30;;;13.10;99.90;;;;;;5031108;28;20930;-70
2023/01/07 11:42:38;;;;;;;4.85;1.63;;;13.10;99.90;;;;;;5032906;28;20044;-70
2023/01/07 11:45:24;;;;;;;1.88;1.45;;;12.90;99.90;;;;;;5033340;28;20025;-70
2023/01/07 11:47:55;;;;;;;1.65;1.23;;;12.80;99.90;;;;;;5041927;28;20039;-69
2023/01/07 11:50:29;;;;;;;1.88;1.27;;;12.60;99.90;;;;;;5035774;28;20049;-69
2023/01/07 11:52:57;;;;;;;3.72;1.40;;;12.50;99.90;;;;;;5030041;28;20065;-72
2023/01/07 11:55:22;;;;;;;4.50;1.77;;;12.50;99.90;;;;;;5032670;28;20022;-71
2023/01/07 11:57:55;;;;;;;2.38;1.25;;;12.40;99.90;;;;;;5032749;28;20502;-71
2023/01/07 12:00:22;;;;;;;6.20;1.70;;;12.40;99.90;;;;;;5030592;28;20479;-70
2023/01/07 12:03:10;;;;;;;1.58;1.48;;;12.40;99.90;;;;;;5027762;28;20036;-70
2023/01/07 12:05:37;;;;;;;4.53;1.85;;;12.30;99.90;;;;;;5032427;28;20041;-71
2023/01/07 12:08:04;;;;;;;1.20;1.00;;;12.30;99.90;;;;;;5032949;28;20022;-69
2023/01/07 12:10:36;;;;;;;2.65;1.20;;;12.30;99.90;;;;;;5032381;28;20094;-69
2023/01/07 12:13:05;;;;;;;2.03;1.02;;;12.30;99.90;;;;;;5032903;28;20033;-70
2023/01/07 12:15:36;;;;;;;2.13;1.17;;;12.30;99.90;;;;;;5032309;28;20034;-70
2023/01/07 12:18:37;;;;;;;3.38;1.23;;;12.40;99.90;;;;;;5030910;28;20033;-70
2023/01/07 12:21:31;;;;;;;4.43;1.60;;;12.40;99.90;;;;;;5023317;28;20096;-70
2023/01/07 12:24:08;;;;;;;1.70;1.08;;;12.50;99.90;;;;;;5032170;28;20467;-70
2023/01/07 12:27:05;;;;;;;2.95;1.40;;;12.50;99.90;;;;;;5031177;28;20029;-69
2023/01/07 12:29:50;;;;;;;2.03;1.23;;;12.50;99.90;;;;;;5032676;28;20040;-69
2023/01/07 12:32:32;;;;;;;3.40;1.42;;;12.50;99.90;;;;;;5027506;28;20184;-69
2023/01/07 12:35:13;;;;;;;3.53;1.40;;;12.50;99.90;;;;;;5018401;28;20037;-69
2023/01/07 12:37:45;;;;;;;2.60;1.58;;;12.40;99.90;;;;;;5030341;28;20036;-69
2023/01/07 12:40:21;;;;;;;4.00;1.48;;;12.40;99.90;;;;;;5031932;28;20029;-70
2023/01/07 12:42:53;;;;;;;1.75;1.08;;;12.30;99.90;;;;;;5028752;28;20447;-69
2023/01/07 12:45:27;;;;;;;4.32;1.70;;;12.30;99.90;;;;;;5032055;28;20041;-70
2023/01/07 12:48:01;;;;;;;2.42;1.30;;;12.30;99.90;;;;;;5030874;28;20425;-71
2023/01/07 12:50:44;;;;;;;4.25;1.20;;;12.30;99.90;;;;;;5030474;28;20450;-71
2023/01/07 12:53:28;;;;;;;2.00;1.23;;;12.30;99.90;;;;;;5032196;28;20029;-71
2023/01/07 12:56:01;;;;;;;6.53;1.02;;;12.30;99.90;;;;;;5030922;28;20025;-69
2023/01/07 12:59:01;;;;;;;3.55;1.27;;;12.30;99.90;;;;;;5030779;28;20021;-69
2023/01/07 13:01:32;;;;;;;2.83;1.50;;;12.30;99.90;;;;;;5026375;28;20053;-69
2023/01/07 13:04:35;;;;;;;1.87;1.33;;;12.40;99.90;;;;;;5030710;28;20025;-71
2023/01/07 13:07:07;;;;;;;2.60;1.27;;;12.40;99.90;;;;;;5030040;28;20022;-69
2023/01/07 13:09:57;;;;;;;1.73;1.23;;;12.30;99.90;;;;;;5030989;28;20043;-70